Time,TemperatureF,DewpointF,PressureIn,WindDirection,WindDirectionDegrees,WindSpeedMPH,WindSpeedGustMPH,Humidity,HourlyPrecipIn,Conditions,Clouds,dailyrainin,SolarRadiationWatts/m^2,SoftwareType,DateUTC
2013-03-06 00:01:00,44.0,18.0,-100.00,North,8,12.0,23.0,35,0.00,,,0.00,0.000000,,2013-03-06 08:01:00,
2013-03-06 00:11:00,44.0,18.0,-100.00,North,8,12.0,23.0,35,0.00,,,0.00,0.000000,,2013-03-06 08:11:00,
2013-03-06 00:21:00,44.0,18.0,-100.00,North,8,12.0,23.0,35,0.00,,,0.00,0.000000,,2013-03-06 08:21:00,
2013-03-06 00:31:00,44.0,18.0,-100.00,North,8,12.0,23.0,35,0.00,,,0.00,0.000000,,2013-03-06 08:31:00,
2013-03-06 00:52:00,42.0,15.0,-100.00,NNW,341,21.0,53.0,33,0.00,,,0.00,0.000000,,2013-03-06 08:52:00,
2013-03-06 01:01:00,42.0,15.0,-100.00,NNW,341,21.0,53.0,33,0.00,,,0.00,0.000000,,2013-03-06 09:01:00,
2013-03-06 01:12:00,42.0,15.0,-100.00,NNW,341,21.0,53.0,33,0.00,,,0.00,0.000000,,2013-03-06 09:12:00,
2013-03-06 01:21:00,42.0,15.0,-100.00,NNW,341,21.0,53.0,33,0.00,,,0.00,0.000000,,2013-03-06 09:21:00,
2013-03-06 01:31:00,42.0,15.0,-100.00,NNW,341,21.0,53.0,33,0.00,,,0.00,0.000000,,2013-03-06 09:31:00,
2013-03-06 01:52:00,41.0,22.0,-100.00,NNW,343,22.0,47.0,46,0.00,,,0.00,0.000000,,2013-03-06 09:52:00,
2013-03-06 02:01:00,41.0,22.0,-100.00,NNW,343,22.0,47.0,46,0.00,,,0.00,0.000000,,2013-03-06 10:01:00,
2013-03-06 02:11:00,41.0,22.0,-100.00,NNW,343,22.0,47.0,46,0.00,,,0.00,0.000000,,2013-03-06 10:11:00,
2013-03-06 02:21:00,41.0,22.0,-100.00,NNW,343,22.0,47.0,46,0.00,,,0.00,0.000000,,2013-03-06 10:21:00,
2013-03-06 02:31:00,41.0,22.0,-100.00,NNW,343,22.0,47.0,46,0.00,,,0.00,0.000000,,2013-03-06 10:31:00,
2013-03-06 02:52:00,39.0,23.0,-100.00,North,357,21.0,45.0,52,0.00,,,0.00,0.000000,,2013-03-06 10:52:00,
2013-03-06 03:02:00,39.0,23.0,-100.00,North,357,21.0,45.0,52,0.00,,,0.00,0.000000,,2013-03-06 11:02:00,
2013-03-06 03:11:00,39.0,23.0,-100.00,North,357,21.0,45.0,52,0.00,,,0.00,0.000000,,2013-03-06 11:11:00,
2013-03-06 03:22:00,39.0,23.0,-100.00,North,357,21.0,45.0,52,0.00,,,0.00,0.000000,,2013-03-06 11:22:00,
2013-03-06 03:31:00,39.0,23.0,-100.00,North,357,21.0,45.0,52,0.00,,,0.00,0.000000,,2013-03-06 11:31:00,
2013-03-06 03:32:00,39.0,18.0,-100.00,NNW,341,27.0,56.0,42,0.00,,,0.00,0.000000,,2013-03-06 11:32:00,
2013-03-06 03:52:00,39.0,18.0,-100.00,NNW,341,27.0,56.0,42,0.00,,,0.00,0.000000,,2013-03-06 11:52:00,
2013-03-06 04:01:00,39.0,18.0,-100.00,NNW,341,27.0,56.0,42,0.00,,,0.00,0.000000,,2013-03-06 12:01:00,
2013-03-06 04:11:00,39.0,18.0,-100.00,NNW,341,27.0,56.0,42,0.00,,,0.00,0.000000,,2013-03-06 12:11:00,
2013-03-06 04:21:00,39.0,18.0,-100.00,NNW,341,27.0,56.0,42,0.00,,,0.00,0.000000,,2013-03-06 12:21:00,
2013-03-06 04:52:00,39.0,25.0,-100.00,NNE,30,12.0,51.0,58,0.00,,,0.00,0.000000,,2013-03-06 12:52:00,
2013-03-06 05:02:00,39.0,25.0,-100.00,NNE,30,12.0,51.0,58,0.00,,,0.00,0.000000,,2013-03-06 13:02:00,
2013-03-06 05:11:00,39.0,25.0,-100.00,NNE,30,12.0,51.0,58,0.00,,,0.00,0.000000,,2013-03-06 13:11:00,
2013-03-06 05:21:00,39.0,25.0,-100.00,NNE,30,12.0,51.0,58,0.00,,,0.00,0.000000,,2013-03-06 13:21:00,
2013-03-06 05:31:00,39.0,25.0,-100.00,NNE,30,12.0,51.0,58,0.00,,,0.00,0.000000,,2013-03-06 13:31:00,
2013-03-06 05:32:00,38.0,25.0,-100.00,NNE,27,10.0,36.0,59,0.00,,,0.00,0.000000,,2013-03-06 13:32:00,
2013-03-06 05:52:00,38.0,25.0,-100.00,NNE,27,10.0,36.0,59,0.00,,,0.00,0.000000,,2013-03-06 13:52:00,
2013-03-06 06:01:00,38.0,25.0,-100.00,NNE,27,10.0,36.0,59,0.00,,,0.00,0.000000,,2013-03-06 14:01:00,
2013-03-06 06:11:00,38.0,25.0,-100.00,NNE,27,10.0,36.0,59,0.00,,,0.00,0.000000,,2013-03-06 14:11:00,
2013-03-06 06:21:00,38.0,25.0,-100.00,NNE,27,10.0,36.0,59,0.00,,,0.00,0.000000,,2013-03-06 14:21:00,
2013-03-06 06:32:00,38.0,26.0,-100.00,East,79,6.0,28.0,61,0.00,,,0.00,5.000000,,2013-03-06 14:32:00,
2013-03-06 06:52:00,38.0,26.0,-100.00,East,79,6.0,28.0,61,0.00,,,0.00,5.000000,,2013-03-06 14:52:00,
2013-03-06 07:01:00,38.0,26.0,-100.00,East,79,6.0,28.0,61,0.00,,,0.00,5.000000,,2013-03-06 15:01:00,
2013-03-06 07:11:00,38.0,26.0,-100.00,East,79,6.0,28.0,61,0.00,,,0.00,5.000000,,2013-03-06 15:11:00,
2013-03-06 07:21:00,38.0,26.0,-100.00,East,79,6.0,28.0,61,0.00,,,0.00,5.000000,,2013-03-06 15:21:00,
2013-03-06 07:32:00,39.0,28.0,-100.00,North,10,15.0,33.0,64,0.00,,,0.00,195.000000,,2013-03-06 15:32:00,
2013-03-06 07:52:00,39.0,28.0,-100.00,North,10,15.0,33.0,64,0.00,,,0.00,195.000000,,2013-03-06 15:52:00,
2013-03-06 08:01:00,39.0,28.0,-100.00,North,10,15.0,33.0,64,0.00,,,0.00,195.000000,,2013-03-06 16:01:00,
2013-03-06 08:11:00,39.0,28.0,-100.00,North,10,15.0,33.0,64,0.00,,,0.00,195.000000,,2013-03-06 16:11:00,
2013-03-06 08:21:00,39.0,28.0,-100.00,North,10,15.0,33.0,64,0.00,,,0.00,195.000000,,2013-03-06 16:21:00,
2013-03-06 08:52:00,42.0,30.0,-100.00,NNE,28,15.0,30.0,61,0.00,,,0.00,568.000000,,2013-03-06 16:52:00,
2013-03-06 09:01:00,42.0,30.0,-100.00,NNE,28,15.0,30.0,61,0.00,,,0.00,568.000000,,2013-03-06 17:01:00,
2013-03-06 09:11:00,42.0,30.0,-100.00,NNE,28,15.0,30.0,61,0.00,,,0.00,568.000000,,2013-03-06 17:11:00,
2013-03-06 09:21:00,42.0,30.0,-100.00,NNE,28,15.0,30.0,61,0.00,,,0.00,568.000000,,2013-03-06 17:21:00,
2013-03-06 09:31:00,42.0,30.0,-100.00,NNE,28,15.0,30.0,61,0.00,,,0.00,568.000000,,2013-03-06 17:31:00,
2013-03-06 09:32:00,45.0,30.0,-100.00,ESE,122,11.0,36.0,56,0.00,,,0.00,749.000000,,2013-03-06 17:32:00,
2013-03-06 09:52:00,45.0,30.0,-100.00,ESE,122,11.0,36.0,56,0.00,,,0.00,749.000000,,2013-03-06 17:52:00,
2013-03-06 10:01:00,45.0,30.0,-100.00,ESE,122,11.0,36.0,56,0.00,,,0.00,749.000000,,2013-03-06 18:01:00,
2013-03-06 10:28:00,45.0,30.0,-100.00,ESE,122,11.0,36.0,56,0.00,,,0.00,749.000000,,2013-03-06 18:28:00,
2013-03-06 10:52:00,42.0,28.0,-100.00,SE,126,13.0,42.0,57,0.00,,,0.00,536.000000,,2013-03-06 18:52:00,
2013-03-06 11:02:00,42.0,28.0,-100.00,SE,126,13.0,42.0,57,0.00,,,0.00,536.000000,,2013-03-06 19:02:00,
2013-03-06 11:11:00,42.0,28.0,-100.00,SE,126,13.0,42.0,57,0.00,,,0.00,536.000000,,2013-03-06 19:11:00,
2013-03-06 11:21:00,42.0,28.0,-100.00,SE,126,13.0,42.0,57,0.00,,,0.00,536.000000,,2013-03-06 19:21:00,
2013-03-06 11:31:00,42.0,28.0,-100.00,SE,126,13.0,42.0,57,0.00,,,0.00,536.000000,,2013-03-06 19:31:00,
2013-03-06 11:53:00,43.0,28.0,-100.00,NW,308,16.0,44.0,54,0.00,,,0.00,355.000000,,2013-03-06 19:53:00,
2013-03-06 12:01:00,43.0,28.0,-100.00,NW,308,16.0,44.0,54,0.00,,,0.00,355.000000,,2013-03-06 20:01:00,
2013-03-06 12:11:00,43.0,28.0,-100.00,NW,308,16.0,44.0,54,0.00,,,0.00,355.000000,,2013-03-06 20:11:00,
2013-03-06 12:22:00,43.0,28.0,-100.00,NW,308,16.0,44.0,54,0.00,,,0.00,355.000000,,2013-03-06 20:22:00,
2013-03-06 12:31:00,43.0,28.0,-100.00,NW,308,16.0,44.0,54,0.00,,,0.00,355.000000,,2013-03-06 20:31:00,
2013-03-06 12:53:00,42.0,25.0,-100.00,West,278,10.0,43.0,51,0.00,,,0.00,326.000000,,2013-03-06 20:53:00,
2013-03-06 13:02:00,42.0,25.0,-100.00,West,278,10.0,43.0,51,0.00,,,0.00,326.000000,,2013-03-06 21:02:00,
2013-03-06 13:31:00,42.0,25.0,-100.00,West,278,10.0,43.0,51,0.00,,,0.00,326.000000,,2013-03-06 21:31:00,
2013-03-06 13:52:00,43.0,26.0,-100.00,NE,41,14.0,42.0,51,-99.99,,,0.00,419.000000,,2013-03-06 21:52:00,
2013-03-06 14:01:00,43.0,26.0,-100.00,NE,41,14.0,42.0,51,-99.99,,,0.00,419.000000,,2013-03-06 22:01:00,
2013-03-06 14:11:00,43.0,26.0,-100.00,NE,41,14.0,42.0,51,-99.99,,,0.00,419.000000,,2013-03-06 22:11:00,
2013-03-06 14:21:00,43.0,26.0,-100.00,NE,41,14.0,42.0,51,-99.99,,,0.00,419.000000,,2013-03-06 22:21:00,
2013-03-06 14:31:00,43.0,26.0,-100.00,NE,41,14.0,42.0,51,-99.99,,,0.00,419.000000,,2013-03-06 22:31:00,
2013-03-06 14:52:00,43.0,25.0,-100.00,NNE,32,14.0,35.0,49,0.00,,,0.00,230.000000,,2013-03-06 22:52:00,
2013-03-06 15:01:00,43.0,25.0,-100.00,NNE,32,14.0,35.0,49,0.00,,,0.00,230.000000,,2013-03-06 23:01:00,
2013-03-06 15:11:00,43.0,25.0,-100.00,NNE,32,14.0,35.0,49,0.00,,,0.00,230.000000,,2013-03-06 23:11:00,
2013-03-06 15:21:00,43.0,25.0,-100.00,NNE,32,14.0,35.0,49,0.00,,,0.00,230.000000,,2013-03-06 23:21:00,
2013-03-06 15:31:00,43.0,25.0,-100.00,NNE,32,14.0,35.0,49,0.00,,,0.00,230.000000,,2013-03-06 23:31:00,
2013-03-06 15:32:00,42.0,23.0,-100.00,NNE,22,17.0,37.0,47,0.00,,,0.00,356.000000,,2013-03-06 23:32:00,
2013-03-06 15:52:00,42.0,23.0,-100.00,NNE,22,17.0,37.0,47,0.00,,,0.00,356.000000,,2013-03-06 23:52:00,
2013-03-06 16:01:00,42.0,23.0,-100.00,NNE,22,17.0,37.0,47,0.00,,,0.00,356.000000,,2013-03-07 00:01:00,
2013-03-06 16:11:00,42.0,23.0,-100.00,NNE,22,17.0,37.0,47,0.00,,,0.00,356.000000,,2013-03-07 00:11:00,
2013-03-06 16:21:00,42.0,23.0,-100.00,NNE,22,17.0,37.0,47,0.00,,,0.00,356.000000,,2013-03-07 00:21:00,
2013-03-06 16:52:00,42.0,26.0,-100.00,North,352,17.0,41.0,52,0.00,,,0.00,231.000000,,2013-03-07 00:52:00,
2013-03-06 17:01:00,42.0,26.0,-100.00,North,352,17.0,41.0,52,0.00,,,0.00,231.000000,,2013-03-07 01:01:00,
2013-03-06 17:11:00,42.0,26.0,-100.00,North,352,17.0,41.0,52,0.00,,,0.00,231.000000,,2013-03-07 01:11:00,
2013-03-06 17:21:00,42.0,26.0,-100.00,North,352,17.0,41.0,52,0.00,,,0.00,231.000000,,2013-03-07 01:21:00,
2013-03-06 17:31:00,42.0,26.0,-100.00,North,352,17.0,41.0,52,0.00,,,0.00,231.000000,,2013-03-07 01:31:00,
2013-03-06 17:52:00,39.0,24.0,-100.00,West,278,24.0,44.0,55,0.00,,,0.00,65.000000,,2013-03-07 01:52:00,
2013-03-06 18:01:00,39.0,24.0,-100.00,West,278,24.0,44.0,55,0.00,,,0.00,65.000000,,2013-03-07 02:01:00,
2013-03-06 18:11:00,39.0,24.0,-100.00,West,278,24.0,44.0,55,0.00,,,0.00,65.000000,,2013-03-07 02:11:00,
2013-03-06 18:21:00,39.0,24.0,-100.00,West,278,24.0,44.0,55,0.00,,,0.00,65.000000,,2013-03-07 02:21:00,
2013-03-06 18:31:00,39.0,24.0,-100.00,West,278,24.0,44.0,55,0.00,,,0.00,65.000000,,2013-03-07 02:31:00,
2013-03-06 19:01:00,40.0,25.0,-100.00,West,281,34.0,49.0,54,0.00,,,0.00,5.000000,,2013-03-07 03:01:00,
2013-03-06 19:11:00,40.0,25.0,-100.00,West,281,34.0,49.0,54,0.00,,,0.00,5.000000,,2013-03-07 03:11:00,
2013-03-06 19:21:00,40.0,25.0,-100.00,West,281,34.0,49.0,54,0.00,,,0.00,5.000000,,2013-03-07 03:21:00,
2013-03-06 19:31:00,40.0,25.0,-100.00,West,281,34.0,49.0,54,0.00,,,0.00,5.000000,,2013-03-07 03:31:00,
2013-03-06 19:52:00,40.0,26.0,-100.00,WNW,295,38.0,55.0,56,0.00,,,0.00,0.000000,,2013-03-07 03:52:00,
2013-03-06 20:01:00,40.0,26.0,-100.00,WNW,295,38.0,55.0,56,0.00,,,0.00,0.000000,,2013-03-07 04:01:00,
2013-03-06 20:11:00,40.0,26.0,-100.00,WNW,295,38.0,55.0,56,0.00,,,0.00,0.000000,,2013-03-07 04:11:00,
2013-03-06 20:21:00,40.0,26.0,-100.00,WNW,295,38.0,55.0,56,0.00,,,0.00,0.000000,,2013-03-07 04:21:00,
2013-03-06 20:31:00,40.0,26.0,-100.00,WNW,295,38.0,55.0,56,0.00,,,0.00,0.000000,,2013-03-07 04:31:00,
2013-03-06 20:52:00,40.0,23.0,-100.00,WNW,297,33.0,48.0,50,0.00,,,0.00,0.000000,,2013-03-07 04:52:00,
2013-03-06 21:01:00,40.0,23.0,-100.00,WNW,297,33.0,48.0,50,0.00,,,0.00,0.000000,,2013-03-07 05:01:00,
2013-03-06 21:12:00,40.0,23.0,-100.00,WNW,297,33.0,48.0,50,0.00,,,0.00,0.000000,,2013-03-07 05:12:00,
2013-03-06 21:22:00,40.0,23.0,-100.00,WNW,297,33.0,48.0,50,0.00,,,0.00,0.000000,,2013-03-07 05:22:00,
2013-03-06 21:31:00,40.0,23.0,-100.00,WNW,297,33.0,48.0,50,0.00,,,0.00,0.000000,,2013-03-07 05:31:00,
2013-03-06 21:52:00,39.0,14.0,-100.00,NW,313,34.0,49.0,36,0.00,,,0.00,0.000000,,2013-03-07 05:52:00,
2013-03-06 22:01:00,39.0,14.0,-100.00,NW,313,34.0,49.0,36,0.00,,,0.00,0.000000,,2013-03-07 06:01:00,
2013-03-06 22:11:00,39.0,14.0,-100.00,NW,313,34.0,49.0,36,0.00,,,0.00,0.000000,,2013-03-07 06:11:00,
2013-03-06 22:21:00,39.0,14.0,-100.00,NW,313,34.0,49.0,36,0.00,,,0.00,0.000000,,2013-03-07 06:21:00,
2013-03-06 22:31:00,39.0,14.0,-100.00,NW,313,34.0,49.0,36,0.00,,,0.00,0.000000,,2013-03-07 06:31:00,
2013-03-06 22:52:00,40.0,18.0,-100.00,WNW,303,25.0,47.0,40,0.00,,,0.00,0.000000,,2013-03-07 06:52:00,
2013-03-06 23:01:00,40.0,18.0,-100.00,WNW,303,25.0,47.0,40,0.00,,,0.00,0.000000,,2013-03-07 07:01:00,
2013-03-06 23:11:00,40.0,18.0,-100.00,WNW,303,25.0,47.0,40,0.00,,,0.00,0.000000,,2013-03-07 07:11:00,
2013-03-06 23:21:00,40.0,18.0,-100.00,WNW,303,25.0,47.0,40,0.00,,,0.00,0.000000,,2013-03-07 07:21:00,
2013-03-06 23:31:00,40.0,18.0,-100.00,WNW,303,25.0,47.0,40,0.00,,,0.00,0.000000,,2013-03-07 07:31:00,
2013-03-06 23:32:00,39.0,19.0,-100.00,WNW,295,20.0,40.0,45,0.00,,,0.00,0.000000,,2013-03-07 07:32:00,
2013-03-06 23:52:00,39.0,19.0,-100.00,WNW,295,20.0,40.0,45,0.00,,,0.00,0.000000,,2013-03-07 07:52:00,